createdAt,value
2019-03-11T00:01:11.389Z,11.82
2019-03-11T00:03:41.309Z,12.04
2019-03-11T00:06:11.704Z,11.49
2019-03-11T00:08:42.159Z,11.84
2019-03-11T00:11:12.352Z,12.08
2019-03-11T00:13:42.343Z,12.25
2019-03-11T00:16:12.466Z,11.88
2019-03-11T00:18:42.679Z,11.20
2019-03-11T00:21:12.899Z,11.36
2019-03-11T00:23:42.845Z,11.36
2019-03-11T00:26:12.836Z,11.10
2019-03-11T00:28:43.043Z,11.42
2019-03-11T00:31:13.090Z,11.54
2019-03-11T00:33:43.315Z,10.94
2019-03-11T00:36:13.646Z,10.59
2019-03-11T00:38:43.545Z,11.12
2019-03-11T00:41:13.451Z,11.11
2019-03-11T00:43:43.654Z,11.15
2019-03-11T00:46:13.875Z,10.99
2019-03-11T00:48:43.881Z,11.03
2019-03-11T00:51:13.792Z,11.30
2019-03-11T00:53:44.007Z,11.33
2019-03-11T00:56:14.204Z,11.45
2019-03-11T00:58:44.102Z,10.64
2019-03-11T01:01:14.096Z,11.26
2019-03-11T01:03:44.291Z,10.89
2019-03-11T01:06:14.602Z,11.19
2019-03-11T01:08:44.631Z,11.21
2019-03-11T01:11:14.835Z,10.99
2019-03-11T01:13:44.841Z,10.42
2019-03-11T01:16:14.846Z,10.72
2019-03-11T01:18:45.023Z,10.61
2019-03-11T01:21:15.224Z,10.76
2019-03-11T01:23:45.119Z,11.27
2019-03-11T01:26:15.038Z,10.80
2019-03-11T01:28:45.236Z,11.13
2019-03-11T01:31:15.437Z,11.23
2019-03-11T01:33:45.334Z,11.35
2019-03-11T01:36:15.337Z,10.56
2019-03-11T01:38:45.511Z,10.88
2019-03-11T01:41:15.695Z,11.14
2019-03-11T01:43:45.585Z,11.18
2019-03-11T01:46:15.499Z,11.43
2019-03-11T01:48:45.697Z,10.86
2019-03-11T01:51:15.887Z,9.87
2019-03-11T01:53:45.798Z,10.25
2019-03-11T01:56:15.703Z,9.69
2019-03-11T01:58:45.910Z,10.45
2019-03-11T02:01:16.131Z,10.90
2019-03-11T02:03:46.141Z,10.93
2019-03-11T02:06:16.282Z,11.06
2019-03-11T02:08:46.740Z,10.44
2019-03-11T02:11:16.932Z,10.51
2019-03-11T02:13:47.032Z,10.83
2019-03-11T02:16:17.039Z,10.91
2019-03-11T02:18:47.249Z,10.83
2019-03-11T02:21:17.455Z,10.65
2019-03-11T02:23:47.365Z,10.85
2019-03-11T02:26:17.261Z,10.97
2019-03-11T02:28:47.458Z,10.97
2019-03-11T02:31:17.555Z,10.95
2019-03-11T02:33:47.845Z,10.83
2019-03-11T02:36:18.057Z,10.64
2019-03-11T02:38:47.963Z,10.53
2019-03-11T02:41:17.884Z,10.33
2019-03-11T02:43:48.054Z,10.40
2019-03-11T02:46:18.245Z,10.57
2019-03-11T02:48:48.141Z,9.04
2019-03-11T02:51:18.199Z,7.96
2019-03-11T02:53:48.429Z,7.98
2019-03-11T02:56:19.124Z,7.97
2019-03-11T02:58:49.145Z,8.94
2019-03-11T03:01:37.882Z,9.44
2019-03-11T03:04:26.970Z,9.39
2019-03-11T03:06:57.436Z,9.63
2019-03-11T03:09:27.336Z,9.77
2019-03-11T03:11:57.551Z,9.71
2019-03-11T03:14:27.570Z,9.77
2019-03-11T03:16:57.450Z,9.81
2019-03-11T03:19:27.686Z,9.59
2019-03-11T03:21:57.883Z,9.59
2019-03-11T03:24:27.948Z,9.59
2019-03-11T03:26:58.062Z,9.57
2019-03-11T03:29:28.307Z,9.46
2019-03-11T03:31:58.584Z,9.46
2019-03-11T03:34:28.648Z,9.49
2019-03-11T03:36:58.541Z,9.56
2019-03-11T03:39:28.714Z,9.51
2019-03-11T03:41:59.080Z,9.52
2019-03-11T03:44:29.096Z,9.29
2019-03-11T03:46:59.210Z,9.24
2019-03-11T03:49:29.422Z,9.34
2019-03-11T03:51:59.534Z,9.44
2019-03-11T03:54:29.757Z,9.47
2019-03-11T03:56:59.952Z,9.51
2019-03-11T03:59:29.841Z,9.47
2019-03-11T04:01:59.738Z,9.66
2019-03-11T04:04:30.028Z,9.40
2019-03-11T04:07:00.217Z,8.72
2019-03-11T04:09:30.259Z,8.84
2019-03-11T04:12:00.367Z,9.06
2019-03-11T04:14:30.586Z,9.22
2019-03-11T04:17:00.785Z,9.14
2019-03-11T04:19:30.983Z,8.91
2019-03-11T04:22:01.082Z,8.98
2019-03-11T04:24:31.377Z,8.68
2019-03-11T04:27:05.915Z,8.23
2019-03-11T04:29:35.924Z,8.29
2019-03-11T04:32:06.132Z,8.08
2019-03-11T04:34:36.376Z,8.37
2019-03-11T04:37:06.915Z,8.18
2019-03-11T04:39:37.123Z,8.43
2019-03-11T04:42:07.333Z,8.43
2019-03-11T04:44:37.337Z,8.53
2019-03-11T04:47:07.461Z,8.80
2019-03-11T04:49:37.645Z,8.79
2019-03-11T04:52:07.855Z,8.75
2019-03-11T04:54:37.847Z,8.77
2019-03-11T04:57:07.859Z,9.07
2019-03-11T04:59:38.069Z,9.24
2019-03-11T05:02:08.272Z,9.11
2019-03-11T05:04:38.378Z,9.11
2019-03-11T05:07:08.265Z,9.13
2019-03-11T05:09:38.655Z,9.20
2019-03-11T05:12:08.746Z,9.18
2019-03-11T05:14:38.944Z,9.23
2019-03-11T05:17:09.166Z,9.19
2019-03-11T05:19:39.180Z,9.25
2019-03-11T05:22:09.096Z,9.40
2019-03-11T05:24:39.363Z,9.31
2019-03-11T05:27:09.551Z,9.29
2019-03-11T05:29:39.517Z,9.31
2019-03-11T05:32:09.407Z,9.52
2019-03-11T05:34:39.602Z,9.65
2019-03-11T05:37:09.822Z,9.68
2019-03-11T05:39:39.935Z,9.72
2019-03-11T05:42:09.953Z,9.67
2019-03-11T05:44:40.147Z,9.79
2019-03-11T05:47:10.333Z,9.83
2019-03-11T05:49:40.234Z,9.90
2019-03-11T05:52:10.452Z,9.58
2019-03-11T05:54:40.367Z,9.93
2019-03-11T05:57:10.478Z,10.01
2019-03-11T05:59:40.665Z,10.07
2019-03-11T06:02:10.867Z,10.15
2019-03-11T06:04:40.865Z,10.08
2019-03-11T06:07:10.892Z,10.38
2019-03-11T06:09:41.406Z,10.83
2019-03-11T06:12:11.678Z,10.19
2019-03-11T06:14:41.580Z,9.67
2019-03-11T06:17:11.565Z,9.22
2019-03-11T06:19:41.766Z,9.13
2019-03-11T06:22:21.107Z,9.65
2019-03-11T06:24:51.000Z,9.87
2019-03-11T06:27:20.905Z,10.55
2019-03-11T06:29:51.114Z,9.77
2019-03-11T06:32:21.134Z,9.65
2019-03-11T06:34:51.365Z,9.68
2019-03-11T06:37:21.548Z,9.56
2019-03-11T06:39:51.441Z,9.40
2019-03-11T06:42:21.458Z,9.60
2019-03-11T06:44:51.646Z,9.36
2019-03-11T06:47:21.848Z,9.31
2019-03-11T06:49:51.875Z,8.93
2019-03-11T06:52:21.771Z,9.13
2019-03-11T06:54:52.013Z,9.98
2019-03-11T06:57:22.237Z,9.97
2019-03-11T06:59:52.141Z,10.56
2019-03-11T07:02:22.042Z,10.61
2019-03-11T07:04:52.256Z,10.94
2019-03-11T07:07:22.455Z,11.20
2019-03-11T07:09:52.730Z,11.33
2019-03-11T07:12:22.786Z,11.94
2019-03-11T07:14:53.084Z,12.26
2019-03-11T07:17:23.384Z,12.59
2019-03-11T07:19:53.516Z,12.89
2019-03-11T07:22:23.560Z,13.34
2019-03-11T07:24:53.851Z,13.16
2019-03-11T07:27:24.055Z,13.41
2019-03-11T07:29:53.947Z,13.83
2019-03-11T07:32:23.941Z,13.78
2019-03-11T07:34:54.134Z,13.98
2019-03-11T07:37:24.351Z,13.71
2019-03-11T07:39:54.361Z,14.26
2019-03-11T07:42:24.375Z,14.69
2019-03-11T07:44:54.574Z,15.28
2019-03-11T07:47:24.820Z,15.39
2019-03-11T07:49:54.702Z,15.70
2019-03-11T07:52:26.181Z,16.60
2019-03-11T07:54:56.384Z,17.71
2019-03-11T07:57:26.587Z,17.41
2019-03-11T07:59:57.300Z,17.73
2019-03-11T08:02:27.481Z,17.61
2019-03-11T08:04:57.386Z,17.60
2019-03-11T08:07:27.758Z,17.64
2019-03-11T08:09:58.270Z,18.43
2019-03-11T08:12:28.836Z,18.84
2019-03-11T08:14:58.724Z,19.00
2019-03-11T08:17:28.836Z,19.03
2019-03-11T08:19:59.044Z,19.66
2019-03-11T08:22:29.220Z,20.63
2019-03-11T08:24:59.110Z,21.07
2019-03-11T08:27:29.104Z,20.38
2019-03-11T08:29:59.645Z,20.96
2019-03-11T08:32:29.787Z,21.52
2019-03-11T08:34:59.978Z,21.21
2019-03-11T08:37:30.153Z,21.42
2019-03-11T08:40:00.192Z,21.81
2019-03-11T08:42:30.136Z,20.87
2019-03-11T08:45:00.464Z,22.22
2019-03-11T08:47:30.706Z,22.45
2019-03-11T08:50:00.722Z,22.18
2019-03-11T08:52:30.845Z,22.43
2019-03-11T08:55:01.061Z,22.84
2019-03-11T08:57:31.292Z,22.01
2019-03-11T09:00:01.197Z,22.13
2019-03-11T09:02:31.223Z,23.01
2019-03-11T09:05:01.454Z,23.22
2019-03-11T09:07:31.639Z,23.29
2019-03-11T09:10:01.888Z,25.14
2019-03-11T09:12:32.235Z,24.82
2019-03-11T09:15:02.371Z,25.56
2019-03-11T09:17:32.526Z,25.86
2019-03-11T09:20:02.755Z,25.51
2019-03-11T09:22:32.983Z,24.57
2019-03-11T09:25:03.047Z,24.75
2019-03-11T09:27:33.082Z,24.40
2019-03-11T09:30:03.360Z,25.00
2019-03-11T09:32:33.553Z,24.09
2019-03-11T09:35:03.683Z,24.61
2019-03-11T09:37:33.728Z,23.64
2019-03-11T09:40:04.252Z,23.83
2019-03-11T09:42:34.504Z,24.69
2019-03-11T09:45:04.668Z,25.42
2019-03-11T09:47:34.720Z,25.20
2019-03-11T09:50:05.193Z,25.36
2019-03-11T09:52:35.234Z,24.83
2019-03-11T09:55:05.674Z,25.61
2019-03-11T09:57:35.867Z,26.09
2019-03-11T10:00:07.958Z,26.25
2019-03-11T10:02:37.894Z,26.24
2019-03-11T10:05:08.639Z,26.25
2019-03-11T10:07:38.886Z,26.27
2019-03-11T10:10:11.003Z,25.92
2019-03-11T10:12:41.402Z,25.48
2019-03-11T10:15:13.798Z,25.40
2019-03-11T10:17:44.209Z,24.98
2019-03-11T10:20:14.805Z,24.40
2019-03-11T10:22:44.920Z,25.01
2019-03-11T10:25:16.142Z,25.50
2019-03-11T10:27:46.366Z,25.32
2019-03-11T10:30:17.381Z,26.16
2019-03-11T10:32:47.706Z,26.24
2019-03-11T10:35:33.387Z,26.14
2019-03-11T10:37:49.915Z,24.55
2019-03-11T10:40:21.355Z,23.32
2019-03-11T10:42:51.677Z,24.43
2019-03-11T10:45:30.244Z,25.03
2019-03-11T10:47:53.665Z,24.06
2019-03-11T10:50:24.071Z,24.39
2019-03-11T10:52:54.276Z,24.62
2019-03-11T10:55:24.515Z,25.01
2019-03-11T10:57:54.735Z,26.04
2019-03-11T11:00:26.452Z,26.11
2019-03-11T11:02:56.705Z,25.22
2019-03-11T11:05:26.683Z,25.84
2019-03-11T11:07:56.819Z,26.17
2019-03-11T11:10:27.129Z,26.27
2019-03-11T11:12:57.330Z,26.58
2019-03-11T11:15:27.632Z,24.88
2019-03-11T11:17:57.836Z,23.79
2019-03-11T11:20:28.253Z,23.81
2019-03-11T11:22:58.265Z,23.40
2019-03-11T11:25:28.681Z,23.93
2019-03-11T11:27:58.865Z,23.14
2019-03-11T11:30:29.065Z,22.95
2019-03-11T11:32:59.085Z,23.51
2019-03-11T11:35:29.288Z,23.47
2019-03-11T11:37:59.499Z,24.17
2019-03-11T11:40:29.625Z,23.97
2019-03-11T11:42:59.850Z,23.84
2019-03-11T11:45:30.189Z,24.66
2019-03-11T11:48:00.412Z,25.72
2019-03-11T11:50:30.826Z,24.67
2019-03-11T11:53:01.044Z,24.97
2019-03-11T11:55:31.148Z,23.92
2019-03-11T11:58:01.175Z,24.52
2019-03-11T12:00:32.409Z,24.47
2019-03-11T12:03:02.603Z,24.37
2019-03-11T12:05:32.738Z,24.82
2019-03-11T12:08:02.859Z,24.13
2019-03-11T12:10:33.082Z,23.52
2019-03-11T12:13:03.800Z,23.23
2019-03-11T12:15:34.165Z,23.68
2019-03-11T12:18:04.320Z,24.09
2019-03-11T12:20:34.698Z,23.11
2019-03-11T12:23:04.895Z,23.25
2019-03-11T12:25:34.920Z,22.68
2019-03-11T12:28:05.145Z,23.39
2019-03-11T12:30:35.433Z,23.26
2019-03-11T12:33:05.882Z,22.42
2019-03-11T12:35:36.123Z,22.62
2019-03-11T12:38:06.494Z,22.25
2019-03-11T12:40:36.745Z,22.46
2019-03-11T12:43:06.998Z,21.64
2019-03-11T12:45:37.426Z,21.52
2019-03-11T12:48:07.708Z,21.94
2019-03-11T12:50:38.017Z,21.94
2019-03-11T12:53:08.349Z,22.13
2019-03-11T12:55:38.633Z,21.85
2019-03-11T12:58:08.879Z,21.78
2019-03-11T13:00:39.166Z,22.50
2019-03-11T13:03:09.412Z,23.43
2019-03-11T13:05:39.656Z,23.72
2019-03-11T13:08:09.993Z,23.92
2019-03-11T13:10:40.839Z,23.40
2019-03-11T13:13:11.192Z,24.21
2019-03-11T13:15:41.483Z,24.60
2019-03-11T13:18:46.486Z,24.40
2019-03-11T13:21:23.354Z,23.86
2019-03-11T13:23:54.246Z,23.58
2019-03-11T13:26:25.172Z,23.74
2019-03-11T13:28:56.011Z,23.52
2019-03-11T13:31:27.039Z,23.12
2019-03-11T13:33:57.686Z,24.13
2019-03-11T13:36:28.524Z,24.02
2019-03-11T13:38:59.158Z,24.10
2019-03-11T13:41:29.408Z,23.91
2019-03-11T13:43:59.658Z,23.22
2019-03-11T13:46:30.211Z,22.69
2019-03-11T13:49:01.078Z,23.53
2019-03-11T13:51:32.311Z,23.47
2019-03-11T13:54:02.553Z,22.93
2019-03-11T13:56:33.367Z,22.46
2019-03-11T13:59:03.619Z,22.79
2019-03-11T14:01:33.857Z,22.85
2019-03-11T14:04:04.100Z,22.95
2019-03-11T14:06:34.353Z,22.94
2019-03-11T14:09:05.940Z,22.87
2019-03-11T14:11:36.185Z,22.14
2019-03-11T14:14:06.742Z,21.88
2019-03-11T14:16:37.438Z,21.86
2019-03-11T14:19:07.813Z,21.38
2019-03-11T14:21:38.071Z,21.53
2019-03-11T14:24:08.334Z,21.41
2019-03-11T14:26:38.650Z,21.37
2019-03-11T14:29:08.903Z,21.31
2019-03-11T14:31:39.289Z,20.91
2019-03-11T14:34:09.510Z,20.58
2019-03-11T14:36:39.789Z,20.73
2019-03-11T14:39:10.044Z,20.34
2019-03-11T14:41:40.322Z,20.42
2019-03-11T14:44:10.554Z,19.91
2019-03-11T14:46:40.789Z,20.28
2019-03-11T14:49:11.039Z,19.93
2019-03-11T14:51:41.287Z,19.72
2019-03-11T14:54:11.528Z,19.88
2019-03-11T14:56:41.778Z,19.81
2019-03-11T14:59:12.009Z,19.67
2019-03-11T15:01:42.249Z,20.22
2019-03-11T15:04:12.501Z,19.56
2019-03-11T15:06:42.745Z,19.76
2019-03-11T15:09:12.999Z,20.22
2019-03-11T15:11:43.229Z,19.76
2019-03-11T15:14:13.586Z,19.59
2019-03-11T15:16:43.831Z,19.64
2019-03-11T15:19:14.083Z,19.47
2019-03-11T15:21:44.326Z,19.57
2019-03-11T15:24:14.565Z,19.23
2019-03-11T15:26:44.810Z,19.08
2019-03-11T15:29:15.053Z,19.33
2019-03-11T15:31:45.301Z,19.37
2019-03-11T15:34:15.545Z,19.47
2019-03-11T15:36:45.925Z,19.20
2019-03-11T15:39:16.269Z,19.23
2019-03-11T15:41:46.507Z,19.22
2019-03-11T15:44:16.755Z,19.25
2019-03-11T15:46:46.999Z,19.36
2019-03-11T15:49:17.243Z,19.49
2019-03-11T15:51:47.508Z,19.59
2019-03-11T15:54:17.738Z,19.24
2019-03-11T15:56:48.007Z,19.27
2019-03-11T15:59:18.263Z,19.32
2019-03-11T16:01:48.500Z,19.33
2019-03-11T16:04:18.755Z,19.25
2019-03-11T16:06:49.021Z,19.40
2019-03-11T16:09:19.897Z,19.31
2019-03-11T16:11:50.319Z,19.17
2019-03-11T16:14:20.920Z,19.15
2019-03-11T16:16:51.454Z,18.97
2019-03-11T16:19:21.767Z,18.60
2019-03-11T16:21:52.027Z,18.57
2019-03-11T16:24:22.260Z,18.59
2019-03-11T16:26:52.501Z,18.46
2019-03-11T16:29:22.747Z,18.56
2019-03-11T16:31:53.007Z,18.53
2019-03-11T16:34:23.326Z,18.40
2019-03-11T16:36:53.577Z,18.09
2019-03-11T16:39:23.817Z,18.14
2019-03-11T16:41:54.111Z,18.27
2019-03-11T16:44:24.363Z,18.52
2019-03-11T16:46:54.718Z,18.58
2019-03-11T16:49:24.976Z,18.54
2019-03-11T16:51:55.216Z,18.35
2019-03-11T16:54:25.467Z,17.90
2019-03-11T16:56:55.710Z,18.06
2019-03-11T16:59:26.588Z,18.04
2019-03-11T17:01:57.428Z,18.00
2019-03-11T17:04:28.368Z,17.75
2019-03-11T17:06:59.101Z,17.89
2019-03-11T17:09:29.829Z,18.07
2019-03-11T17:12:02.811Z,17.99
2019-03-11T17:14:33.748Z,17.82
2019-03-11T17:17:04.571Z,17.76
2019-03-11T17:19:35.525Z,17.97
2019-03-11T17:22:08.269Z,18.07
2019-03-11T17:24:37.760Z,18.12
2019-03-11T17:27:08.036Z,18.09
2019-03-11T17:29:38.288Z,17.82
2019-03-11T17:32:08.551Z,17.74
2019-03-11T17:34:38.789Z,17.92
2019-03-11T17:37:09.041Z,17.96
2019-03-11T17:39:39.811Z,17.98
2019-03-11T17:42:10.235Z,17.98
2019-03-11T17:44:40.378Z,17.97
2019-03-11T17:47:11.313Z,17.98
2019-03-11T17:49:45.070Z,17.98
2019-03-11T17:52:15.524Z,17.94
2019-03-11T17:54:45.963Z,17.91
2019-03-11T17:57:16.206Z,17.89
2019-03-11T17:59:46.915Z,17.88
2019-03-11T18:02:17.109Z,17.80
2019-03-11T18:04:47.154Z,17.39
2019-03-11T18:07:17.384Z,17.51
2019-03-11T18:09:47.597Z,17.61
2019-03-11T18:12:17.738Z,17.45
2019-03-11T18:14:47.955Z,17.47
2019-03-11T18:17:18.683Z,17.48
2019-03-11T18:19:49.456Z,17.45
2019-03-11T18:22:19.365Z,17.46
2019-03-11T18:24:49.774Z,17.43
2019-03-11T18:27:20.596Z,17.41
2019-03-11T18:29:51.005Z,17.43
2019-03-11T18:32:21.576Z,17.44
2019-03-11T18:34:52.268Z,17.36
2019-03-11T18:37:22.689Z,17.33
2019-03-11T18:39:53.146Z,17.32
2019-03-11T18:42:26.219Z,17.25
2019-03-11T18:44:56.338Z,16.88
2019-03-11T18:47:26.380Z,16.36
2019-03-11T18:49:56.365Z,16.31
2019-03-11T18:52:47.089Z,16.51
2019-03-11T18:55:18.062Z,16.42
2019-03-11T18:57:48.199Z,16.59
2019-03-11T19:00:19.416Z,16.68
2019-03-11T19:02:49.666Z,16.71
2019-03-11T19:05:19.945Z,16.15
2019-03-11T19:07:50.090Z,16.02
2019-03-11T19:10:20.286Z,16.24
2019-03-11T19:12:50.492Z,16.40
2019-03-11T19:15:20.717Z,16.18
2019-03-11T19:17:51.011Z,16.30
2019-03-11T19:20:21.306Z,16.31
2019-03-11T19:22:51.472Z,16.14
2019-03-11T19:25:21.669Z,15.54
2019-03-11T19:27:51.988Z,15.53
2019-03-11T19:30:22.394Z,15.93
2019-03-11T19:32:52.587Z,16.16
2019-03-11T19:35:23.128Z,16.20
2019-03-11T19:37:53.828Z,16.17
2019-03-11T19:40:24.321Z,16.28
2019-03-11T19:42:54.356Z,16.16
2019-03-11T19:45:24.857Z,15.64
2019-03-11T19:47:55.133Z,15.45
2019-03-11T19:50:25.429Z,15.56
2019-03-11T19:52:58.859Z,15.72
2019-03-11T19:55:27.836Z,15.58
2019-03-11T19:57:58.145Z,15.77
2019-03-11T20:00:28.783Z,15.08
2019-03-11T20:02:59.174Z,15.20
2019-03-11T20:05:29.716Z,15.10
2019-03-11T20:08:00.158Z,15.00
2019-03-11T20:10:30.651Z,15.45
2019-03-11T20:13:00.897Z,15.48
2019-03-11T20:15:31.162Z,15.63
2019-03-11T20:18:01.197Z,15.50
2019-03-11T20:20:31.350Z,15.65
2019-03-11T20:23:01.653Z,15.00
2019-03-11T20:25:32.028Z,14.38
2019-03-11T20:28:02.209Z,14.17
2019-03-11T20:30:32.845Z,14.18
2019-03-11T20:33:04.112Z,14.46
2019-03-11T20:35:34.581Z,14.24
2019-03-11T20:38:04.816Z,14.36
2019-03-11T20:40:35.011Z,14.72
2019-03-11T20:43:05.253Z,14.52
2019-03-11T20:45:35.532Z,14.31
2019-03-11T20:48:05.636Z,14.17
2019-03-11T20:50:42.094Z,14.06
2019-03-11T20:53:07.625Z,14.46
2019-03-11T20:55:37.904Z,14.60
2019-03-11T20:58:08.037Z,15.00
2019-03-11T21:00:38.178Z,15.19
2019-03-11T21:03:08.460Z,15.26
2019-03-11T21:05:38.825Z,15.28
2019-03-11T21:08:09.064Z,15.39
2019-03-11T21:10:39.130Z,15.38
2019-03-11T21:13:09.583Z,15.14
2019-03-11T21:15:39.842Z,15.32
2019-03-11T21:18:10.140Z,15.36
2019-03-11T21:20:40.574Z,14.42
2019-03-11T21:23:10.711Z,14.15
2019-03-11T21:25:40.739Z,14.45
2019-03-11T21:28:11.027Z,14.65
2019-03-11T21:30:41.351Z,14.22
2019-03-11T21:33:11.628Z,14.50
2019-03-11T21:35:42.172Z,14.24
2019-03-11T21:38:12.887Z,14.63
2019-03-11T21:40:43.543Z,14.65
2019-03-11T21:43:13.702Z,14.60
2019-03-11T21:45:44.081Z,14.56
2019-03-11T21:48:14.418Z,14.76
2019-03-11T21:50:45.116Z,14.87
2019-03-11T21:53:15.291Z,14.72
2019-03-11T21:55:45.844Z,14.51
2019-03-11T21:58:16.374Z,14.56
2019-03-11T22:00:46.495Z,14.66
2019-03-11T22:03:16.717Z,14.93
2019-03-11T22:05:46.916Z,15.11
2019-03-11T22:08:16.938Z,15.33
2019-03-11T22:10:46.971Z,15.18
2019-03-11T22:13:17.205Z,15.13
2019-03-11T22:15:47.401Z,14.97
2019-03-11T22:18:17.420Z,15.00
2019-03-11T22:20:47.727Z,14.86
2019-03-11T22:23:17.947Z,14.48
2019-03-11T22:25:48.145Z,14.70
2019-03-11T22:28:18.291Z,14.92
2019-03-11T22:30:48.326Z,15.05
2019-03-11T22:33:18.527Z,15.15
2019-03-11T22:35:48.678Z,15.03
2019-03-11T22:38:18.906Z,15.17
2019-03-11T22:40:49.095Z,15.10
2019-03-11T22:43:19.013Z,15.10
2019-03-11T22:45:49.059Z,15.02
2019-03-11T22:48:20.856Z,14.98
2019-03-11T22:50:51.230Z,15.10
2019-03-11T22:53:21.244Z,14.31
2019-03-11T22:55:51.469Z,13.77
2019-03-11T22:58:21.689Z,14.01
2019-03-11T23:00:58.454Z,14.02
2019-03-11T23:03:28.697Z,14.44
2019-03-11T23:05:58.891Z,14.35
2019-03-11T23:08:29.144Z,14.57
2019-03-11T23:10:59.340Z,14.33
2019-03-11T23:13:29.342Z,14.42
2019-03-11T23:15:59.275Z,14.76
2019-03-11T23:18:29.492Z,14.90
2019-03-11T23:20:59.679Z,14.63
2019-03-11T23:23:29.777Z,14.38
2019-03-11T23:25:59.709Z,14.55
2019-03-11T23:28:29.934Z,14.45
2019-03-11T23:31:00.651Z,14.54
2019-03-11T23:33:31.075Z,14.60
2019-03-11T23:36:01.428Z,14.57
2019-03-11T23:38:32.159Z,14.59
2019-03-11T23:41:02.664Z,14.61
2019-03-11T23:43:33.175Z,14.50
2019-03-11T23:46:03.629Z,14.32
2019-03-11T23:48:34.059Z,13.60
2019-03-11T23:51:04.565Z,13.90
2019-03-11T23:53:34.689Z,13.90
2019-03-11T23:56:04.946Z,14.16
2019-03-11T23:58:35.224Z,13.86
